sensor_id;sensor_type;location;lat;lon;timestamp;temperature;humidity
30288;DHT22;17103;48.316;11.558;2024-03-06T00:00:57;11.10;54.50
30288;DHT22;17103;48.316;11.558;2024-03-06T00:03:23;11.10;54.60
30288;DHT22;17103;48.316;11.558;2024-03-06T00:05:48;11.10;54.60
30288;DHT22;17103;48.316;11.558;2024-03-06T00:08:14;11.10;54.50
30288;DHT22;17103;48.316;11.558;2024-03-06T00:10:41;11.10;54.50
30288;DHT22;17103;48.316;11.558;2024-03-06T00:13:07;11.20;54.80
30288;DHT22;17103;48.316;11.558;2024-03-06T00:15:32;11.20;54.70
30288;DHT22;17103;48.316;11.558;2024-03-06T00:17:59;11.30;54.60
30288;DHT22;17103;48.316;11.558;2024-03-06T00:20:25;11.30;54.50
30288;DHT22;17103;48.316;11.558;2024-03-06T00:22:51;11.40;54.30
30288;DHT22;17103;48.316;11.558;2024-03-06T00:25:17;11.40;54.10
30288;DHT22;17103;48.316;11.558;2024-03-06T00:27:42;11.40;54.00
30288;DHT22;17103;48.316;11.558;2024-03-06T00:30:08;11.50;54.10
30288;DHT22;17103;48.316;11.558;2024-03-06T00:32:34;11.50;54.10
30288;DHT22;17103;48.316;11.558;2024-03-06T00:35:00;11.50;53.90
30288;DHT22;17103;48.316;11.558;2024-03-06T00:37:25;11.60;53.90
30288;DHT22;17103;48.316;11.558;2024-03-06T00:39:51;11.60;53.70
30288;DHT22;17103;48.316;11.558;2024-03-06T00:42:17;11.60;53.50
30288;DHT22;17103;48.316;11.558;2024-03-06T00:44:44;11.60;53.30
30288;DHT22;17103;48.316;11.558;2024-03-06T00:47:09;11.60;53.40
30288;DHT22;17103;48.316;11.558;2024-03-06T00:49:35;11.50;53.20
30288;DHT22;17103;48.316;11.558;2024-03-06T00:52:01;11.50;53.20
30288;DHT22;17103;48.316;11.558;2024-03-06T00:54:26;11.50;53.30
30288;DHT22;17103;48.316;11.558;2024-03-06T00:56:52;11.50;53.40
30288;DHT22;17103;48.316;11.558;2024-03-06T00:59:17;11.40;53.50
30288;DHT22;17103;48.316;11.558;2024-03-06T01:01:43;11.40;53.50
30288;DHT22;17103;48.316;11.558;2024-03-06T01:04:09;11.40;53.40
30288;DHT22;17103;48.316;11.558;2024-03-06T01:06:34;11.40;53.50
30288;DHT22;17103;48.316;11.558;2024-03-06T01:09:00;11.40;53.60
30288;DHT22;17103;48.316;11.558;2024-03-06T01:11:26;11.30;53.50
30288;DHT22;17103;48.316;11.558;2024-03-06T01:13:52;11.30;53.60
30288;DHT22;17103;48.316;11.558;2024-03-06T01:16:17;11.30;53.70
30288;DHT22;17103;48.316;11.558;2024-03-06T01:18:43;11.30;53.50
30288;DHT22;17103;48.316;11.558;2024-03-06T01:21:09;11.20;53.60
30288;DHT22;17103;48.316;11.558;2024-03-06T01:23:35;11.30;53.80
30288;DHT22;17103;48.316;11.558;2024-03-06T01:26:00;11.20;53.90
30288;DHT22;17103;48.316;11.558;2024-03-06T01:28:26;11.20;54.00
30288;DHT22;17103;48.316;11.558;2024-03-06T01:30:52;11.20;54.00
30288;DHT22;17103;48.316;11.558;2024-03-06T01:33:18;11.20;54.00
30288;DHT22;17103;48.316;11.558;2024-03-06T01:35:43;11.20;54.00
30288;DHT22;17103;48.316;11.558;2024-03-06T01:38:09;11.20;53.90
30288;DHT22;17103;48.316;11.558;2024-03-06T01:40:35;11.20;54.00
30288;DHT22;17103;48.316;11.558;2024-03-06T01:43:01;11.20;54.00
30288;DHT22;17103;48.316;11.558;2024-03-06T01:45:27;11.20;54.10
30288;DHT22;17103;48.316;11.558;2024-03-06T01:47:53;11.30;54.10
30288;DHT22;17103;48.316;11.558;2024-03-06T01:50:19;11.30;54.10
30288;DHT22;17103;48.316;11.558;2024-03-06T01:52:46;11.30;54.10
30288;DHT22;17103;48.316;11.558;2024-03-06T01:55:12;11.40;54.20
30288;DHT22;17103;48.316;11.558;2024-03-06T01:57:39;11.30;54.20
30288;DHT22;17103;48.316;11.558;2024-03-06T02:00:08;11.40;54.30
30288;DHT22;17103;48.316;11.558;2024-03-06T02:02:42;11.40;54.50
30288;DHT22;17103;48.316;11.558;2024-03-06T02:05:09;11.40;54.40
30288;DHT22;17103;48.316;11.558;2024-03-06T02:07:36;11.80;54.70
30288;DHT22;17103;48.316;11.558;2024-03-06T02:10:03;11.50;54.20
30288;DHT22;17103;48.316;11.558;2024-03-06T02:12:30;11.60;54.20
30288;DHT22;17103;48.316;11.558;2024-03-06T02:14:56;11.60;54.00
30288;DHT22;17103;48.316;11.558;2024-03-06T02:17:22;11.70;54.00
30288;DHT22;17103;48.316;11.558;2024-03-06T02:19:47;11.70;53.70
30288;DHT22;17103;48.316;11.558;2024-03-06T02:22:13;11.70;53.60
30288;DHT22;17103;48.316;11.558;2024-03-06T02:24:44;11.80;53.50
30288;DHT22;17103;48.316;11.558;2024-03-06T02:27:11;11.80;53.40
30288;DHT22;17103;48.316;11.558;2024-03-06T02:29:36;11.80;53.20
30288;DHT22;17103;48.316;11.558;2024-03-06T02:32:03;11.80;53.20
30288;DHT22;17103;48.316;11.558;2024-03-06T02:34:29;11.80;53.10
30288;DHT22;17103;48.316;11.558;2024-03-06T02:36:57;11.80;53.30
30288;DHT22;17103;48.316;11.558;2024-03-06T02:39:23;11.80;53.20
30288;DHT22;17103;48.316;11.558;2024-03-06T02:41:49;11.90;53.10
30288;DHT22;17103;48.316;11.558;2024-03-06T02:44:15;11.90;53.10
30288;DHT22;17103;48.316;11.558;2024-03-06T02:46:49;11.90;53.00
30288;DHT22;17103;48.316;11.558;2024-03-06T02:49:15;11.90;53.10
30288;DHT22;17103;48.316;11.558;2024-03-06T02:51:41;11.90;53.70
30288;DHT22;17103;48.316;11.558;2024-03-06T02:54:07;12.00;53.40
30288;DHT22;17103;48.316;11.558;2024-03-06T02:56:33;12.00;53.40
30288;DHT22;17103;48.316;11.558;2024-03-06T02:58:58;12.00;53.30
30288;DHT22;17103;48.316;11.558;2024-03-06T03:01:27;12.10;53.30
30288;DHT22;17103;48.316;11.558;2024-03-06T03:03:53;12.10;53.20
30288;DHT22;17103;48.316;11.558;2024-03-06T03:06:19;12.20;53.10
30288;DHT22;17103;48.316;11.558;2024-03-06T03:08:46;12.20;52.80
30288;DHT22;17103;48.316;11.558;2024-03-06T03:11:12;12.70;53.00
30288;DHT22;17103;48.316;11.558;2024-03-06T03:13:38;12.30;52.50
30288;DHT22;17103;48.316;11.558;2024-03-06T03:16:05;12.30;52.60
30288;DHT22;17103;48.316;11.558;2024-03-06T03:18:31;12.30;52.50
30288;DHT22;17103;48.316;11.558;2024-03-06T03:20:56;12.30;52.60
30288;DHT22;17103;48.316;11.558;2024-03-06T03:23:22;12.30;52.40
30288;DHT22;17103;48.316;11.558;2024-03-06T03:25:48;12.40;52.40
30288;DHT22;17103;48.316;11.558;2024-03-06T03:28:17;12.40;52.10
30288;DHT22;17103;48.316;11.558;2024-03-06T03:30:44;12.40;52.20
30288;DHT22;17103;48.316;11.558;2024-03-06T03:33:09;12.30;52.20
30288;DHT22;17103;48.316;11.558;2024-03-06T03:35:35;12.50;52.50
30288;DHT22;17103;48.316;11.558;2024-03-06T03:38:01;12.40;52.30
30288;DHT22;17103;48.316;11.558;2024-03-06T03:40:26;12.40;52.30
30288;DHT22;17103;48.316;11.558;2024-03-06T03:42:52;12.40;52.20
30288;DHT22;17103;48.316;11.558;2024-03-06T03:45:18;12.50;52.10
30288;DHT22;17103;48.316;11.558;2024-03-06T03:47:45;12.50;52.10
30288;DHT22;17103;48.316;11.558;2024-03-06T03:50:11;12.50;51.90
30288;DHT22;17103;48.316;11.558;2024-03-06T03:52:36;12.50;51.90
30288;DHT22;17103;48.316;11.558;2024-03-06T03:55:07;12.50;52.00
30288;DHT22;17103;48.316;11.558;2024-03-06T03:57:33;12.50;52.10
30288;DHT22;17103;48.316;11.558;2024-03-06T03:59:58;12.50;52.20
30288;DHT22;17103;48.316;11.558;2024-03-06T04:02:25;13.00;52.50
30288;DHT22;17103;48.316;11.558;2024-03-06T04:04:50;12.50;52.00
30288;DHT22;17103;48.316;11.558;2024-03-06T04:07:16;12.60;52.10
30288;DHT22;17103;48.316;11.558;2024-03-06T04:09:44;12.60;51.90
30288;DHT22;17103;48.316;11.558;2024-03-06T04:12:09;12.80;52.00
30288;DHT22;17103;48.316;11.558;2024-03-06T04:14:35;12.70;51.90
30288;DHT22;17103;48.316;11.558;2024-03-06T04:17:01;12.70;51.90
30288;DHT22;17103;48.316;11.558;2024-03-06T04:19:29;12.70;51.80
30288;DHT22;17103;48.316;11.558;2024-03-06T04:21:54;12.80;51.70
30288;DHT22;17103;48.316;11.558;2024-03-06T04:24:20;13.00;51.70
30288;DHT22;17103;48.316;11.558;2024-03-06T04:26:46;12.80;51.50
30288;DHT22;17103;48.316;11.558;2024-03-06T04:29:11;12.90;51.50
30288;DHT22;17103;48.316;11.558;2024-03-06T04:31:37;12.90;51.40
30288;DHT22;17103;48.316;11.558;2024-03-06T04:34:03;12.90;51.30
30288;DHT22;17103;48.316;11.558;2024-03-06T04:36:28;12.90;51.10
30288;DHT22;17103;48.316;11.558;2024-03-06T04:38:54;12.90;51.10
30288;DHT22;17103;48.316;11.558;2024-03-06T04:41:20;13.00;51.00
30288;DHT22;17103;48.316;11.558;2024-03-06T04:43:45;12.90;50.90
30288;DHT22;17103;48.316;11.558;2024-03-06T04:46:14;12.90;51.00
30288;DHT22;17103;48.316;11.558;2024-03-06T04:48:40;12.90;51.00
30288;DHT22;17103;48.316;11.558;2024-03-06T04:51:05;12.90;51.00
30288;DHT22;17103;48.316;11.558;2024-03-06T04:53:31;12.90;51.00
30288;DHT22;17103;48.316;11.558;2024-03-06T04:55:57;12.90;50.90
30288;DHT22;17103;48.316;11.558;2024-03-06T04:58:22;12.90;50.90
30288;DHT22;17103;48.316;11.558;2024-03-06T05:00:48;12.90;50.80
30288;DHT22;17103;48.316;11.558;2024-03-06T05:03:13;12.90;50.70
30288;DHT22;17103;48.316;11.558;2024-03-06T05:05:40;12.90;50.50
30288;DHT22;17103;48.316;11.558;2024-03-06T05:08:06;12.90;50.40
30288;DHT22;17103;48.316;11.558;2024-03-06T05:10:32;13.20;50.50
30288;DHT22;17103;48.316;11.558;2024-03-06T05:12:58;12.90;50.20
30288;DHT22;17103;48.316;11.558;2024-03-06T05:15:23;12.80;50.10
30288;DHT22;17103;48.316;11.558;2024-03-06T05:17:49;12.80;50.10
30288;DHT22;17103;48.316;11.558;2024-03-06T05:20:15;12.70;50.00
30288;DHT22;17103;48.316;11.558;2024-03-06T05:22:42;12.60;50.10
30288;DHT22;17103;48.316;11.558;2024-03-06T05:25:07;12.60;50.10
30288;DHT22;17103;48.316;11.558;2024-03-06T05:27:33;12.50;50.10
30288;DHT22;17103;48.316;11.558;2024-03-06T05:29:59;12.80;50.40
30288;DHT22;17103;48.316;11.558;2024-03-06T05:32:25;12.40;50.20
30288;DHT22;17103;48.316;11.558;2024-03-06T05:34:50;12.40;50.30
30288;DHT22;17103;48.316;11.558;2024-03-06T05:37:16;12.40;50.40
30288;DHT22;17103;48.316;11.558;2024-03-06T05:39:42;12.60;50.80
30288;DHT22;17103;48.316;11.558;2024-03-06T05:42:09;12.50;50.90
30288;DHT22;17103;48.316;11.558;2024-03-06T05:44:34;12.20;50.80
30288;DHT22;17103;48.316;11.558;2024-03-06T05:47:02;12.10;50.80
30288;DHT22;17103;48.316;11.558;2024-03-06T05:49:28;12.10;50.90
30288;DHT22;17103;48.316;11.558;2024-03-06T05:51:54;12.10;50.80
30288;DHT22;17103;48.316;11.558;2024-03-06T05:54:23;12.00;50.90
30288;DHT22;17103;48.316;11.558;2024-03-06T05:56:51;12.00;51.00
30288;DHT22;17103;48.316;11.558;2024-03-06T05:59:18;12.00;51.00
30288;DHT22;17103;48.316;11.558;2024-03-06T06:01:43;11.90;51.70
30288;DHT22;17103;48.316;11.558;2024-03-06T06:04:10;11.90;51.20
30288;DHT22;17103;48.316;11.558;2024-03-06T06:06:36;12.20;51.50
30288;DHT22;17103;48.316;11.558;2024-03-06T06:09:03;11.90;51.30
30288;DHT22;17103;48.316;11.558;2024-03-06T06:11:32;11.90;51.40
30288;DHT22;17103;48.316;11.558;2024-03-06T06:14:02;11.80;51.50
30288;DHT22;17103;48.316;11.558;2024-03-06T06:16:38;11.80;51.60
30288;DHT22;17103;48.316;11.558;2024-03-06T06:19:04;11.80;51.80
30288;DHT22;17103;48.316;11.558;2024-03-06T06:21:31;11.90;51.90
30288;DHT22;17103;48.316;11.558;2024-03-06T06:23:56;11.40;51.50
30288;DHT22;17103;48.316;11.558;2024-03-06T06:26:22;11.80;51.90
30288;DHT22;17103;48.316;11.558;2024-03-06T06:28:47;11.70;51.90
30288;DHT22;17103;48.316;11.558;2024-03-06T06:31:13;11.80;52.00
30288;DHT22;17103;48.316;11.558;2024-03-06T06:33:39;11.80;52.00
30288;DHT22;17103;48.316;11.558;2024-03-06T06:36:05;11.80;52.00
30288;DHT22;17103;48.316;11.558;2024-03-06T06:38:31;11.80;52.00
30288;DHT22;17103;48.316;11.558;2024-03-06T06:40:56;11.70;52.10
30288;DHT22;17103;48.316;11.558;2024-03-06T06:43:22;12.30;52.50
30288;DHT22;17103;48.316;11.558;2024-03-06T06:45:48;11.80;52.10
30288;DHT22;17103;48.316;11.558;2024-03-06T06:48:14;11.80;52.10
30288;DHT22;17103;48.316;11.558;2024-03-06T06:50:40;11.80;52.30
30288;DHT22;17103;48.316;11.558;2024-03-06T06:53:05;11.80;52.30
30288;DHT22;17103;48.316;11.558;2024-03-06T06:55:31;11.80;52.30
30288;DHT22;17103;48.316;11.558;2024-03-06T06:57:57;11.90;52.40
30288;DHT22;17103;48.316;11.558;2024-03-06T07:00:22;11.80;52.40
30288;DHT22;17103;48.316;11.558;2024-03-06T07:02:48;11.80;52.40
30288;DHT22;17103;48.316;11.558;2024-03-06T07:05:14;11.80;52.40
30288;DHT22;17103;48.316;11.558;2024-03-06T07:07:40;11.80;52.30
30288;DHT22;17103;48.316;11.558;2024-03-06T07:10:07;11.90;52.30
30288;DHT22;17103;48.316;11.558;2024-03-06T07:12:34;11.80;52.20
30288;DHT22;17103;48.316;11.558;2024-03-06T07:15:00;11.80;52.30
30288;DHT22;17103;48.316;11.558;2024-03-06T07:17:28;12.20;52.70
30288;DHT22;17103;48.316;11.558;2024-03-06T07:19:53;11.80;52.40
30288;DHT22;17103;48.316;11.558;2024-03-06T07:22:19;11.80;52.30
30288;DHT22;17103;48.316;11.558;2024-03-06T07:24:45;11.80;52.40
30288;DHT22;17103;48.316;11.558;2024-03-06T07:27:11;11.80;52.40
30288;DHT22;17103;48.316;11.558;2024-03-06T07:29:37;12.40;52.90
30288;DHT22;17103;48.316;11.558;2024-03-06T07:32:03;11.80;52.50
30288;DHT22;17103;48.316;11.558;2024-03-06T07:34:31;11.80;52.60
30288;DHT22;17103;48.316;11.558;2024-03-06T07:36:56;11.80;52.50
30288;DHT22;17103;48.316;11.558;2024-03-06T07:39:24;12.00;52.60
30288;DHT22;17103;48.316;11.558;2024-03-06T07:41:51;11.80;52.50
30288;DHT22;17103;48.316;11.558;2024-03-06T07:44:17;11.80;53.00
30288;DHT22;17103;48.316;11.558;2024-03-06T07:46:43;11.90;52.70
30288;DHT22;17103;48.316;11.558;2024-03-06T07:49:09;11.90;52.80
30288;DHT22;17103;48.316;11.558;2024-03-06T07:51:35;11.90;52.80
30288;DHT22;17103;48.316;11.558;2024-03-06T07:54:01;11.90;52.80
30288;DHT22;17103;48.316;11.558;2024-03-06T07:56:29;11.90;52.80
30288;DHT22;17103;48.316;11.558;2024-03-06T07:58:55;11.90;52.70
30288;DHT22;17103;48.316;11.558;2024-03-06T08:01:21;11.90;52.70
30288;DHT22;17103;48.316;11.558;2024-03-06T08:03:47;11.90;52.70
30288;DHT22;17103;48.316;11.558;2024-03-06T08:06:13;12.00;52.80
30288;DHT22;17103;48.316;11.558;2024-03-06T08:08:43;12.10;52.90
30288;DHT22;17103;48.316;11.558;2024-03-06T08:11:10;11.90;52.70
30288;DHT22;17103;48.316;11.558;2024-03-06T08:13:40;11.90;52.90
30288;DHT22;17103;48.316;11.558;2024-03-06T08:16:20;11.90;52.80
30288;DHT22;17103;48.316;11.558;2024-03-06T08:18:45;11.90;52.80
30288;DHT22;17103;48.316;11.558;2024-03-06T08:21:11;11.90;52.70
30288;DHT22;17103;48.316;11.558;2024-03-06T08:26:18;11.80;52.90
30288;DHT22;17103;48.316;11.558;2024-03-06T08:28:43;12.40;53.20
30288;DHT22;17103;48.316;11.558;2024-03-06T08:31:09;12.40;53.20
30288;DHT22;17103;48.316;11.558;2024-03-06T08:33:34;11.90;52.90
30288;DHT22;17103;48.316;11.558;2024-03-06T08:36:00;11.90;52.90
30288;DHT22;17103;48.316;11.558;2024-03-06T08:38:26;11.90;53.00
30288;DHT22;17103;48.316;11.558;2024-03-06T08:40:51;11.90;53.10
30288;DHT22;17103;48.316;11.558;2024-03-06T08:43:17;11.90;53.20
30288;DHT22;17103;48.316;11.558;2024-03-06T08:45:45;11.90;53.30
30288;DHT22;17103;48.316;11.558;2024-03-06T08:48:11;12.60;53.90
30288;DHT22;17103;48.316;11.558;2024-03-06T08:50:38;11.90;53.50
30288;DHT22;17103;48.316;11.558;2024-03-06T08:53:03;12.00;53.40
30288;DHT22;17103;48.316;11.558;2024-03-06T08:55:29;12.00;53.50
30288;DHT22;17103;48.316;11.558;2024-03-06T08:57:55;12.00;53.60
30288;DHT22;17103;48.316;11.558;2024-03-06T09:00:21;12.00;53.70
30288;DHT22;17103;48.316;11.558;2024-03-06T09:02:47;12.00;53.70
30288;DHT22;17103;48.316;11.558;2024-03-06T09:05:12;12.10;53.70
30288;DHT22;17103;48.316;11.558;2024-03-06T09:07:41;12.10;53.70
30288;DHT22;17103;48.316;11.558;2024-03-06T09:10:07;12.10;53.80
30288;DHT22;17103;48.316;11.558;2024-03-06T09:12:33;12.10;53.80
30288;DHT22;17103;48.316;11.558;2024-03-06T09:15:01;12.20;53.90
30288;DHT22;17103;48.316;11.558;2024-03-06T09:17:27;12.20;53.90
30288;DHT22;17103;48.316;11.558;2024-03-06T09:19:53;12.20;54.00
30288;DHT22;17103;48.316;11.558;2024-03-06T09:22:19;12.30;53.80
30288;DHT22;17103;48.316;11.558;2024-03-06T09:24:45;12.30;54.00
30288;DHT22;17103;48.316;11.558;2024-03-06T09:27:10;12.30;54.00
30288;DHT22;17103;48.316;11.558;2024-03-06T09:29:36;12.40;54.10
30288;DHT22;17103;48.316;11.558;2024-03-06T09:32:02;12.40;54.10
30288;DHT22;17103;48.316;11.558;2024-03-06T09:34:27;12.40;54.50
30288;DHT22;17103;48.316;11.558;2024-03-06T09:36:53;12.50;54.10
30288;DHT22;17103;48.316;11.558;2024-03-06T09:39:19;12.50;54.00
30288;DHT22;17103;48.316;11.558;2024-03-06T09:41:53;12.50;54.00
30288;DHT22;17103;48.316;11.558;2024-03-06T09:44:20;12.50;54.00
30288;DHT22;17103;48.316;11.558;2024-03-06T09:46:48;12.60;54.00
30288;DHT22;17103;48.316;11.558;2024-03-06T09:49:23;12.60;53.90
30288;DHT22;17103;48.316;11.558;2024-03-06T09:51:49;12.70;54.00
30288;DHT22;17103;48.316;11.558;2024-03-06T09:54:16;12.50;53.70
30288;DHT22;17103;48.316;11.558;2024-03-06T09:56:47;12.70;54.00
30288;DHT22;17103;48.316;11.558;2024-03-06T09:59:14;12.70;54.00
30288;DHT22;17103;48.316;11.558;2024-03-06T10:04:28;12.80;54.10
30288;DHT22;17103;48.316;11.558;2024-03-06T10:07:00;12.80;54.00
30288;DHT22;17103;48.316;11.558;2024-03-06T10:09:28;12.90;53.80
30288;DHT22;17103;48.316;11.558;2024-03-06T10:11:55;12.90;53.70
30288;DHT22;17103;48.316;11.558;2024-03-06T10:14:22;12.90;53.40
30288;DHT22;17103;48.316;11.558;2024-03-06T10:16:58;12.90;53.10
30288;DHT22;17103;48.316;11.558;2024-03-06T10:19:25;12.90;53.00
30288;DHT22;17103;48.316;11.558;2024-03-06T10:21:53;12.90;53.00
30288;DHT22;17103;48.316;11.558;2024-03-06T10:24:29;13.00;52.90
30288;DHT22;17103;48.316;11.558;2024-03-06T10:26:56;12.90;53.20
30288;DHT22;17103;48.316;11.558;2024-03-06T10:29:25;12.90;52.60
30288;DHT22;17103;48.316;11.558;2024-03-06T10:31:52;12.90;52.50
30288;DHT22;17103;48.316;11.558;2024-03-06T10:34:18;13.00;52.60
30288;DHT22;17103;48.316;11.558;2024-03-06T10:36:45;13.10;52.60
30288;DHT22;17103;48.316;11.558;2024-03-06T10:39:12;13.00;52.50
30288;DHT22;17103;48.316;11.558;2024-03-06T10:41:42;13.00;52.50
30288;DHT22;17103;48.316;11.558;2024-03-06T10:44:11;13.00;52.40
30288;DHT22;17103;48.316;11.558;2024-03-06T10:46:43;13.00;52.50
30288;DHT22;17103;48.316;11.558;2024-03-06T10:49:11;13.00;52.30
30288;DHT22;17103;48.316;11.558;2024-03-06T10:51:39;13.00;52.40
30288;DHT22;17103;48.316;11.558;2024-03-06T10:54:08;13.00;52.30
30288;DHT22;17103;48.316;11.558;2024-03-06T10:56:38;13.00;52.20
30288;DHT22;17103;48.316;11.558;2024-03-06T10:59:08;13.00;52.10
30288;DHT22;17103;48.316;11.558;2024-03-06T11:01:34;13.00;52.00
30288;DHT22;17103;48.316;11.558;2024-03-06T11:04:00;13.00;52.00
30288;DHT22;17103;48.316;11.558;2024-03-06T11:06:26;13.00;52.00
30288;DHT22;17103;48.316;11.558;2024-03-06T11:08:52;13.10;52.00
30288;DHT22;17103;48.316;11.558;2024-03-06T11:11:22;13.10;52.00
30288;DHT22;17103;48.316;11.558;2024-03-06T11:13:49;13.10;51.80
30288;DHT22;17103;48.316;11.558;2024-03-06T11:16:14;13.10;51.80
30288;DHT22;17103;48.316;11.558;2024-03-06T11:18:41;13.10;51.70
30288;DHT22;17103;48.316;11.558;2024-03-06T11:26:36;13.10;51.40
30288;DHT22;17103;48.316;11.558;2024-03-06T11:29:02;13.10;51.60
30288;DHT22;17103;48.316;11.558;2024-03-06T11:31:27;13.40;51.90
30288;DHT22;17103;48.316;11.558;2024-03-06T11:33:53;13.10;51.70
30288;DHT22;17103;48.316;11.558;2024-03-06T11:36:27;13.10;51.60
30288;DHT22;17103;48.316;11.558;2024-03-06T11:39:04;13.10;51.40
30288;DHT22;17103;48.316;11.558;2024-03-06T11:41:48;13.10;51.40
30288;DHT22;17103;48.316;11.558;2024-03-06T11:44:21;13.10;51.20
30288;DHT22;17103;48.316;11.558;2024-03-06T11:47:08;13.10;51.00
30288;DHT22;17103;48.316;11.558;2024-03-06T11:49:36;13.10;51.00
30288;DHT22;17103;48.316;11.558;2024-03-06T11:52:04;13.10;51.00
30288;DHT22;17103;48.316;11.558;2024-03-06T11:54:36;13.10;50.90
30288;DHT22;17103;48.316;11.558;2024-03-06T11:57:04;13.10;51.10
30288;DHT22;17103;48.316;11.558;2024-03-06T11:59:35;13.10;50.90
30288;DHT22;17103;48.316;11.558;2024-03-06T12:02:03;13.10;50.80
30288;DHT22;17103;48.316;11.558;2024-03-06T12:04:34;13.10;50.80
30288;DHT22;17103;48.316;11.558;2024-03-06T12:07:01;13.20;50.90
30288;DHT22;17103;48.316;11.558;2024-03-06T12:09:32;13.10;50.80
30288;DHT22;17103;48.316;11.558;2024-03-06T12:11:58;13.20;50.80
30288;DHT22;17103;48.316;11.558;2024-03-06T12:14:24;13.00;50.60
30288;DHT22;17103;48.316;11.558;2024-03-06T12:17:00;13.00;50.70
30288;DHT22;17103;48.316;11.558;2024-03-06T12:19:33;13.00;50.60
30288;DHT22;17103;48.316;11.558;2024-03-06T12:22:03;12.90;50.60
30288;DHT22;17103;48.316;11.558;2024-03-06T12:24:34;12.90;50.50
30288;DHT22;17103;48.316;11.558;2024-03-06T12:27:01;12.90;50.60
30288;DHT22;17103;48.316;11.558;2024-03-06T12:29:29;13.60;51.20
30288;DHT22;17103;48.316;11.558;2024-03-06T12:31:56;12.90;50.70
30288;DHT22;17103;48.316;11.558;2024-03-06T12:34:22;12.90;50.70
30288;DHT22;17103;48.316;11.558;2024-03-06T12:36:48;13.00;50.80
30288;DHT22;17103;48.316;11.558;2024-03-06T12:39:15;12.80;50.70
30288;DHT22;17103;48.316;11.558;2024-03-06T12:41:47;12.80;50.60
30288;DHT22;17103;48.316;11.558;2024-03-06T12:44:13;12.80;50.70
30288;DHT22;17103;48.316;11.558;2024-03-06T12:46:38;13.30;51.20
30288;DHT22;17103;48.316;11.558;2024-03-06T12:49:04;13.50;51.40
30288;DHT22;17103;48.316;11.558;2024-03-06T12:51:30;12.80;51.30
30288;DHT22;17103;48.316;11.558;2024-03-06T12:53:55;12.70;50.80
30288;DHT22;17103;48.316;11.558;2024-03-06T12:56:21;12.80;50.70
30288;DHT22;17103;48.316;11.558;2024-03-06T12:58:47;12.70;50.60
30288;DHT22;17103;48.316;11.558;2024-03-06T13:11:19;12.70;50.40
30288;DHT22;17103;48.316;11.558;2024-03-06T13:13:45;12.70;50.50
30288;DHT22;17103;48.316;11.558;2024-03-06T13:16:10;12.70;50.50
30288;DHT22;17103;48.316;11.558;2024-03-06T13:18:37;12.70;50.40
30288;DHT22;17103;48.316;11.558;2024-03-06T13:21:03;12.70;50.40
30288;DHT22;17103;48.316;11.558;2024-03-06T13:23:29;12.70;50.40
30288;DHT22;17103;48.316;11.558;2024-03-06T13:26:08;12.70;50.40
30288;DHT22;17103;48.316;11.558;2024-03-06T13:28:34;12.70;50.40
30288;DHT22;17103;48.316;11.558;2024-03-06T13:31:00;12.70;50.50
30288;DHT22;17103;48.316;11.558;2024-03-06T13:33:25;12.70;51.00
30288;DHT22;17103;48.316;11.558;2024-03-06T13:35:53;13.50;51.30
30288;DHT22;17103;48.316;11.558;2024-03-06T13:38:19;12.70;50.80
30288;DHT22;17103;48.316;11.558;2024-03-06T13:40:45;12.70;50.90
30288;DHT22;17103;48.316;11.558;2024-03-06T13:43:11;12.60;50.80
30288;DHT22;17103;48.316;11.558;2024-03-06T13:45:36;12.70;51.60
30288;DHT22;17103;48.316;11.558;2024-03-06T13:48:04;12.70;51.10
30288;DHT22;17103;48.316;11.558;2024-03-06T13:50:39;12.60;50.80
30288;DHT22;17103;48.316;11.558;2024-03-06T13:53:04;12.60;50.90
30288;DHT22;17103;48.316;11.558;2024-03-06T13:55:30;12.60;50.80
30288;DHT22;17103;48.316;11.558;2024-03-06T13:57:58;13.10;51.10
30288;DHT22;17103;48.316;11.558;2024-03-06T14:00:24;13.10;51.00
30288;DHT22;17103;48.316;11.558;2024-03-06T14:02:50;12.60;50.60
30288;DHT22;17103;48.316;11.558;2024-03-06T14:05:16;12.60;50.60
30288;DHT22;17103;48.316;11.558;2024-03-06T14:07:41;12.60;50.50
30288;DHT22;17103;48.316;11.558;2024-03-06T14:10:08;12.60;50.50
30288;DHT22;17103;48.316;11.558;2024-03-06T14:12:34;12.60;50.50
30288;DHT22;17103;48.316;11.558;2024-03-06T14:15:01;12.70;50.60
30288;DHT22;17103;48.316;11.558;2024-03-06T14:17:27;12.60;50.40
30288;DHT22;17103;48.316;11.558;2024-03-06T14:19:52;12.70;50.30
30288;DHT22;17103;48.316;11.558;2024-03-06T14:22:18;12.70;50.20
30288;DHT22;17103;48.316;11.558;2024-03-06T14:24:44;12.70;50.20
30288;DHT22;17103;48.316;11.558;2024-03-06T14:27:09;12.70;50.10
30288;DHT22;17103;48.316;11.558;2024-03-06T14:29:35;12.80;50.10
30288;DHT22;17103;48.316;11.558;2024-03-06T14:32:01;12.70;50.10
30288;DHT22;17103;48.316;11.558;2024-03-06T14:34:26;12.70;50.20
30288;DHT22;17103;48.316;11.558;2024-03-06T14:36:52;12.70;50.10
30288;DHT22;17103;48.316;11.558;2024-03-06T14:39:18;12.70;49.80
30288;DHT22;17103;48.316;11.558;2024-03-06T14:41:47;12.70;49.60
30288;DHT22;17103;48.316;11.558;2024-03-06T14:44:13;13.10;49.90
30288;DHT22;17103;48.316;11.558;2024-03-06T14:46:40;12.70;49.50
30288;DHT22;17103;48.316;11.558;2024-03-06T14:49:06;12.70;49.70
30288;DHT22;17103;48.316;11.558;2024-03-06T14:51:32;12.60;49.60
30288;DHT22;17103;48.316;11.558;2024-03-06T14:53:59;12.60;49.60
30288;DHT22;17103;48.316;11.558;2024-03-06T14:56:24;13.00;50.10
30288;DHT22;17103;48.316;11.558;2024-03-06T14:58:50;12.50;49.90
30288;DHT22;17103;48.316;11.558;2024-03-06T15:01:17;12.40;50.00
30288;DHT22;17103;48.316;11.558;2024-03-06T15:03:43;12.40;49.90
30288;DHT22;17103;48.316;11.558;2024-03-06T15:06:11;12.40;49.90
30288;DHT22;17103;48.316;11.558;2024-03-06T15:08:40;12.30;49.50
30288;DHT22;17103;48.316;11.558;2024-03-06T15:11:06;12.20;49.40
30288;DHT22;17103;48.316;11.558;2024-03-06T15:13:32;12.20;49.50
30288;DHT22;17103;48.316;11.558;2024-03-06T15:15:59;12.20;49.70
30288;DHT22;17103;48.316;11.558;2024-03-06T15:18:24;12.20;49.90
30288;DHT22;17103;48.316;11.558;2024-03-06T15:20:51;12.10;49.90
30288;DHT22;17103;48.316;11.558;2024-03-06T15:23:17;12.10;49.80
30288;DHT22;17103;48.316;11.558;2024-03-06T15:25:43;12.10;49.90
30288;DHT22;17103;48.316;11.558;2024-03-06T15:28:10;12.10;50.00
30288;DHT22;17103;48.316;11.558;2024-03-06T15:30:36;12.00;49.90
30288;DHT22;17103;48.316;11.558;2024-03-06T15:33:06;12.10;50.10